sensor_id;sensor_type;location;lat;lon;timestamp;temperature;humidity
41756;DHT22;27435;48.480;9.258;2023-01-28T00:01:06;-0.90;99.00
41756;DHT22;27435;48.480;9.258;2023-01-28T00:03:32;-0.80;99.00
41756;DHT22;27435;48.480;9.258;2023-01-28T00:06:09;-0.90;99.00
41756;DHT22;27435;48.480;9.258;2023-01-28T00:08:36;-0.80;99.00
41756;DHT22;27435;48.480;9.258;2023-01-28T00:11:03;-0.90;99.00
41756;DHT22;27435;48.480;9.258;2023-01-28T00:13:30;-0.80;99.00
41756;DHT22;27435;48.480;9.258;2023-01-28T00:15:57;-0.80;99.00
41756;DHT22;27435;48.480;9.258;2023-01-28T00:18:24;-0.70;99.00
41756;DHT22;27435;48.480;9.258;2023-01-28T00:21:19;-0.90;99.00
41756;DHT22;27435;48.480;9.258;2023-01-28T00:23:51;-1.00;99.00
41756;DHT22;27435;48.480;9.258;2023-01-28T00:26:19;-0.90;99.00
41756;DHT22;27435;48.480;9.258;2023-01-28T00:28:45;-0.70;99.00
41756;DHT22;27435;48.480;9.258;2023-01-28T00:31:22;-0.60;99.00
41756;DHT22;27435;48.480;9.258;2023-01-28T00:33:49;-0.60;99.00
41756;DHT22;27435;48.480;9.258;2023-01-28T00:36:16;-0.80;99.00
41756;DHT22;27435;48.480;9.258;2023-01-28T00:38:42;-0.80;99.00
41756;DHT22;27435;48.480;9.258;2023-01-28T00:41:13;-0.90;99.00
41756;DHT22;27435;48.480;9.258;2023-01-28T00:43:40;-0.80;99.00
41756;DHT22;27435;48.480;9.258;2023-01-28T00:46:07;-0.70;99.00
41756;DHT22;27435;48.480;9.258;2023-01-28T00:48:37;-0.80;99.00
41756;DHT22;27435;48.480;9.258;2023-01-28T00:51:05;-0.90;99.00
41756;DHT22;27435;48.480;9.258;2023-01-28T00:53:32;-0.90;99.00
41756;DHT22;27435;48.480;9.258;2023-01-28T00:55:59;-1.00;99.00
41756;DHT22;27435;48.480;9.258;2023-01-28T00:58:25;-1.20;99.00
41756;DHT22;27435;48.480;9.258;2023-01-28T01:00:51;-1.10;99.00
41756;DHT22;27435;48.480;9.258;2023-01-28T01:03:17;-1.00;99.00
41756;DHT22;27435;48.480;9.258;2023-01-28T01:05:44;-1.00;99.00
41756;DHT22;27435;48.480;9.258;2023-01-28T01:08:09;-1.00;99.00
41756;DHT22;27435;48.480;9.258;2023-01-28T01:10:36;-1.10;99.00
41756;DHT22;27435;48.480;9.258;2023-01-28T01:13:02;-1.10;99.00
41756;DHT22;27435;48.480;9.258;2023-01-28T01:15:28;-0.90;99.00
41756;DHT22;27435;48.480;9.258;2023-01-28T01:17:53;-0.80;99.00
41756;DHT22;27435;48.480;9.258;2023-01-28T01:20:22;-0.90;99.00
41756;DHT22;27435;48.480;9.258;2023-01-28T01:22:48;-0.90;99.00
41756;DHT22;27435;48.480;9.258;2023-01-28T01:25:15;-1.10;99.00
41756;DHT22;27435;48.480;9.258;2023-01-28T01:27:41;-1.00;99.00
41756;DHT22;27435;48.480;9.258;2023-01-28T01:30:08;-1.00;99.00
41756;DHT22;27435;48.480;9.258;2023-01-28T01:32:34;-1.00;99.00
41756;DHT22;27435;48.480;9.258;2023-01-28T01:35:01;-1.00;99.00
41756;DHT22;27435;48.480;9.258;2023-01-28T01:37:27;-0.90;99.00
41756;DHT22;27435;48.480;9.258;2023-01-28T01:39:53;-0.90;99.00
41756;DHT22;27435;48.480;9.258;2023-01-28T01:42:19;-0.90;99.00
41756;DHT22;27435;48.480;9.258;2023-01-28T01:50:16;-1.00;99.00
41756;DHT22;27435;48.480;9.258;2023-01-28T01:52:43;-1.00;99.00
41756;DHT22;27435;48.480;9.258;2023-01-28T01:55:13;-1.00;99.00
41756;DHT22;27435;48.480;9.258;2023-01-28T01:57:41;-0.90;99.00
41756;DHT22;27435;48.480;9.258;2023-01-28T02:00:09;-1.00;99.00
41756;DHT22;27435;48.480;9.258;2023-01-28T02:02:38;-1.00;99.00
41756;DHT22;27435;48.480;9.258;2023-01-28T02:05:06;-1.10;99.00
41756;DHT22;27435;48.480;9.258;2023-01-28T02:07:32;-1.10;99.00
41756;DHT22;27435;48.480;9.258;2023-01-28T02:09:57;-1.00;99.00
41756;DHT22;27435;48.480;9.258;2023-01-28T02:12:27;-1.00;99.00
41756;DHT22;27435;48.480;9.258;2023-01-28T02:14:59;-1.00;99.00
41756;DHT22;27435;48.480;9.258;2023-01-28T02:17:27;-1.10;99.00
41756;DHT22;27435;48.480;9.258;2023-01-28T02:20:14;-1.00;99.00
41756;DHT22;27435;48.480;9.258;2023-01-28T02:25:16;-1.00;99.00
41756;DHT22;27435;48.480;9.258;2023-01-28T02:33:34;-0.80;99.00
41756;DHT22;27435;48.480;9.258;2023-01-28T02:38:48;-0.80;99.00
41756;DHT22;27435;48.480;9.258;2023-01-28T02:41:24;-0.90;99.00
41756;DHT22;27435;48.480;9.258;2023-01-28T02:43:52;-0.80;99.00
41756;DHT22;27435;48.480;9.258;2023-01-28T02:46:31;-0.90;99.00
41756;DHT22;27435;48.480;9.258;2023-01-28T02:55:27;-1.00;99.00
41756;DHT22;27435;48.480;9.258;2023-01-28T02:58:13;-1.00;99.00
41756;DHT22;27435;48.480;9.258;2023-01-28T03:03:34;-1.00;99.00
41756;DHT22;27435;48.480;9.258;2023-01-28T03:06:13;-1.00;99.00
41756;DHT22;27435;48.480;9.258;2023-01-28T03:08:48;-1.00;99.00
41756;DHT22;27435;48.480;9.258;2023-01-28T03:11:41;-1.10;99.00
41756;DHT22;27435;48.480;9.258;2023-01-28T03:14:27;-1.00;99.00
41756;DHT22;27435;48.480;9.258;2023-01-28T03:17:27;-1.00;99.00
41756;DHT22;27435;48.480;9.258;2023-01-28T03:20:14;-0.90;99.00
41756;DHT22;27435;48.480;9.258;2023-01-28T03:23:03;-0.70;99.00
41756;DHT22;27435;48.480;9.258;2023-01-28T03:25:53;-0.70;99.00
41756;DHT22;27435;48.480;9.258;2023-01-28T03:28:39;-0.70;99.00
41756;DHT22;27435;48.480;9.258;2023-01-28T03:31:25;-0.80;99.00
41756;DHT22;27435;48.480;9.258;2023-01-28T03:34:10;-0.90;99.00
41756;DHT22;27435;48.480;9.258;2023-01-28T03:36:54;-0.80;99.00
41756;DHT22;27435;48.480;9.258;2023-01-28T03:39:25;-0.80;99.00
41756;DHT22;27435;48.480;9.258;2023-01-28T03:41:59;-0.70;99.00
41756;DHT22;27435;48.480;9.258;2023-01-28T03:44:25;-0.70;99.00
41756;DHT22;27435;48.480;9.258;2023-01-28T03:47:10;-0.80;99.00
41756;DHT22;27435;48.480;9.258;2023-01-28T03:49:43;-0.80;99.00
41756;DHT22;27435;48.480;9.258;2023-01-28T03:52:23;-0.70;99.00
41756;DHT22;27435;48.480;9.258;2023-01-28T03:54:49;-0.70;99.00
41756;DHT22;27435;48.480;9.258;2023-01-28T03:57:17;-0.70;99.00
41756;DHT22;27435;48.480;9.258;2023-01-28T03:59:43;-0.70;99.00
41756;DHT22;27435;48.480;9.258;2023-01-28T04:02:09;-0.70;99.00
41756;DHT22;27435;48.480;9.258;2023-01-28T04:04:38;-0.60;99.00
41756;DHT22;27435;48.480;9.258;2023-01-28T04:07:05;-0.60;99.00
41756;DHT22;27435;48.480;9.258;2023-01-28T04:09:33;-0.60;99.00
41756;DHT22;27435;48.480;9.258;2023-01-28T04:12:00;-0.70;99.00
41756;DHT22;27435;48.480;9.258;2023-01-28T04:14:25;-0.70;99.00
41756;DHT22;27435;48.480;9.258;2023-01-28T04:16:51;-0.60;99.00
41756;DHT22;27435;48.480;9.258;2023-01-28T04:19:19;-0.70;99.00
41756;DHT22;27435;48.480;9.258;2023-01-28T04:21:45;-0.70;99.00
41756;DHT22;27435;48.480;9.258;2023-01-28T04:24:12;-0.70;99.00
41756;DHT22;27435;48.480;9.258;2023-01-28T04:26:38;-0.50;99.00
41756;DHT22;27435;48.480;9.258;2023-01-28T04:29:04;-0.50;99.00
41756;DHT22;27435;48.480;9.258;2023-01-28T04:31:30;-0.50;99.00
41756;DHT22;27435;48.480;9.258;2023-01-28T04:33:56;-0.70;99.00
41756;DHT22;27435;48.480;9.258;2023-01-28T04:36:23;-0.70;99.00
41756;DHT22;27435;48.480;9.258;2023-01-28T04:38:48;-0.60;99.00
41756;DHT22;27435;48.480;9.258;2023-01-28T04:41:14;-0.80;99.00
41756;DHT22;27435;48.480;9.258;2023-01-28T04:43:40;-0.70;99.00
41756;DHT22;27435;48.480;9.258;2023-01-28T04:46:05;-0.70;99.00
41756;DHT22;27435;48.480;9.258;2023-01-28T04:48:31;-0.70;99.00
41756;DHT22;27435;48.480;9.258;2023-01-28T04:50:57;-0.70;99.00
41756;DHT22;27435;48.480;9.258;2023-01-28T04:53:22;-0.70;99.00
41756;DHT22;27435;48.480;9.258;2023-01-28T04:55:48;-0.80;99.00
41756;DHT22;27435;48.480;9.258;2023-01-28T04:58:13;-0.60;99.00
41756;DHT22;27435;48.480;9.258;2023-01-28T05:00:39;-0.70;99.00
41756;DHT22;27435;48.480;9.258;2023-01-28T05:03:05;-0.80;99.00
41756;DHT22;27435;48.480;9.258;2023-01-28T05:05:30;-0.90;99.00
41756;DHT22;27435;48.480;9.258;2023-01-28T05:07:57;-0.80;99.00
41756;DHT22;27435;48.480;9.258;2023-01-28T05:10:23;-0.80;99.00
41756;DHT22;27435;48.480;9.258;2023-01-28T05:12:49;-0.80;99.00
41756;DHT22;27435;48.480;9.258;2023-01-28T05:15:16;-0.90;99.00
41756;DHT22;27435;48.480;9.258;2023-01-28T05:17:42;-0.80;99.00
41756;DHT22;27435;48.480;9.258;2023-01-28T05:20:10;-0.90;99.00
41756;DHT22;27435;48.480;9.258;2023-01-28T05:22:36;-1.00;99.00
41756;DHT22;27435;48.480;9.258;2023-01-28T05:25:02;-0.70;99.00
41756;DHT22;27435;48.480;9.258;2023-01-28T05:27:29;-0.80;99.00
41756;DHT22;27435;48.480;9.258;2023-01-28T05:29:55;-0.70;99.00
41756;DHT22;27435;48.480;9.258;2023-01-28T05:32:21;-0.70;99.00
41756;DHT22;27435;48.480;9.258;2023-01-28T05:34:46;-0.70;99.00
41756;DHT22;27435;48.480;9.258;2023-01-28T05:37:12;-0.70;99.00
41756;DHT22;27435;48.480;9.258;2023-01-28T05:39:38;-0.70;99.00
41756;DHT22;27435;48.480;9.258;2023-01-28T05:42:03;-0.70;99.00
41756;DHT22;27435;48.480;9.258;2023-01-28T05:44:29;-0.60;99.00
41756;DHT22;27435;48.480;9.258;2023-01-28T05:46:54;-0.60;99.00
41756;DHT22;27435;48.480;9.258;2023-01-28T05:49:20;-0.60;99.00
41756;DHT22;27435;48.480;9.258;2023-01-28T05:51:46;-0.70;99.00
41756;DHT22;27435;48.480;9.258;2023-01-28T05:54:13;-0.70;99.00
41756;DHT22;27435;48.480;9.258;2023-01-28T05:56:47;-0.70;99.00
41756;DHT22;27435;48.480;9.258;2023-01-28T05:59:22;-0.70;99.00
41756;DHT22;27435;48.480;9.258;2023-01-28T06:01:47;-0.60;99.00
41756;DHT22;27435;48.480;9.258;2023-01-28T06:04:13;-0.60;99.00
41756;DHT22;27435;48.480;9.258;2023-01-28T06:06:39;-0.60;99.00
41756;DHT22;27435;48.480;9.258;2023-01-28T06:09:05;-0.50;99.00
41756;DHT22;27435;48.480;9.258;2023-01-28T06:11:30;-0.50;99.00
41756;DHT22;27435;48.480;9.258;2023-01-28T06:13:56;-0.60;99.00
41756;DHT22;27435;48.480;9.258;2023-01-28T06:16:21;-0.60;99.00
41756;DHT22;27435;48.480;9.258;2023-01-28T06:18:47;-0.60;99.00
41756;DHT22;27435;48.480;9.258;2023-01-28T06:21:13;-0.50;99.00
41756;DHT22;27435;48.480;9.258;2023-01-28T06:23:38;-0.50;99.00
41756;DHT22;27435;48.480;9.258;2023-01-28T06:26:04;-0.50;99.00
41756;DHT22;27435;48.480;9.258;2023-01-28T06:28:29;-0.50;99.00
41756;DHT22;27435;48.480;9.258;2023-01-28T06:30:55;-0.40;99.00
41756;DHT22;27435;48.480;9.258;2023-01-28T06:33:21;-0.50;99.00
41756;DHT22;27435;48.480;9.258;2023-01-28T06:35:48;-0.60;99.00
41756;DHT22;27435;48.480;9.258;2023-01-28T06:38:14;-0.50;99.00
41756;DHT22;27435;48.480;9.258;2023-01-28T06:40:39;-0.50;99.00
41756;DHT22;27435;48.480;9.258;2023-01-28T06:43:05;-0.50;99.00
41756;DHT22;27435;48.480;9.258;2023-01-28T06:45:31;-0.50;99.00
41756;DHT22;27435;48.480;9.258;2023-01-28T06:47:57;-0.40;99.00
41756;DHT22;27435;48.480;9.258;2023-01-28T06:50:23;-0.50;99.00
41756;DHT22;27435;48.480;9.258;2023-01-28T06:52:49;-0.40;99.00
41756;DHT22;27435;48.480;9.258;2023-01-28T06:55:14;-0.30;99.00
41756;DHT22;27435;48.480;9.258;2023-01-28T06:57:41;-0.50;99.00
41756;DHT22;27435;48.480;9.258;2023-01-28T07:00:08;-0.40;99.00
41756;DHT22;27435;48.480;9.258;2023-01-28T07:02:35;-0.50;99.00
41756;DHT22;27435;48.480;9.258;2023-01-28T07:05:02;-0.60;99.00
41756;DHT22;27435;48.480;9.258;2023-01-28T07:07:28;-0.60;99.00
41756;DHT22;27435;48.480;9.258;2023-01-28T07:09:54;-0.50;99.00
41756;DHT22;27435;48.480;9.258;2023-01-28T07:12:20;-0.50;99.00
41756;DHT22;27435;48.480;9.258;2023-01-28T07:14:46;-0.40;99.00
41756;DHT22;27435;48.480;9.258;2023-01-28T07:17:11;-0.40;99.00
41756;DHT22;27435;48.480;9.258;2023-01-28T07:20:07;-0.40;99.00
41756;DHT22;27435;48.480;9.258;2023-01-28T07:22:33;-0.50;99.00
41756;DHT22;27435;48.480;9.258;2023-01-28T07:25:05;-0.50;99.00
41756;DHT22;27435;48.480;9.258;2023-01-28T07:27:54;-0.30;99.00
41756;DHT22;27435;48.480;9.258;2023-01-28T07:30:25;-0.30;99.00
41756;DHT22;27435;48.480;9.258;2023-01-28T07:32:55;-0.30;99.00
41756;DHT22;27435;48.480;9.258;2023-01-28T07:35:36;-0.30;99.00
41756;DHT22;27435;48.480;9.258;2023-01-28T07:38:09;-0.40;99.00
41756;DHT22;27435;48.480;9.258;2023-01-28T07:40:48;-0.40;99.00
41756;DHT22;27435;48.480;9.258;2023-01-28T07:43:20;-0.50;99.00
41756;DHT22;27435;48.480;9.258;2023-01-28T07:45:51;-0.40;99.00
41756;DHT22;27435;48.480;9.258;2023-01-28T07:48:33;-0.30;99.00
41756;DHT22;27435;48.480;9.258;2023-01-28T07:51:10;-0.30;99.00
41756;DHT22;27435;48.480;9.258;2023-01-28T07:53:41;-0.20;99.00
41756;DHT22;27435;48.480;9.258;2023-01-28T07:56:07;-0.30;99.00
41756;DHT22;27435;48.480;9.258;2023-01-28T07:58:32;-0.30;99.00
41756;DHT22;27435;48.480;9.258;2023-01-28T08:00:59;-0.20;99.00
41756;DHT22;27435;48.480;9.258;2023-01-28T08:03:25;-0.10;99.00
41756;DHT22;27435;48.480;9.258;2023-01-28T08:05:52;-0.10;99.00
41756;DHT22;27435;48.480;9.258;2023-01-28T08:08:19;-0.10;99.00
41756;DHT22;27435;48.480;9.258;2023-01-28T08:10:45;-0.20;99.00
41756;DHT22;27435;48.480;9.258;2023-01-28T08:13:12;-0.30;99.00
41756;DHT22;27435;48.480;9.258;2023-01-28T08:15:38;-0.10;99.00
41756;DHT22;27435;48.480;9.258;2023-01-28T08:18:05;0.00;99.00
41756;DHT22;27435;48.480;9.258;2023-01-28T08:20:31;0.00;99.00
41756;DHT22;27435;48.480;9.258;2023-01-28T08:23:29;0.00;99.00
41756;DHT22;27435;48.480;9.258;2023-01-28T08:25:57;-0.10;99.00
41756;DHT22;27435;48.480;9.258;2023-01-28T08:28:23;-0.10;99.00
41756;DHT22;27435;48.480;9.258;2023-01-28T08:30:49;0.00;99.00
41756;DHT22;27435;48.480;9.258;2023-01-28T08:33:16;-0.10;99.00
41756;DHT22;27435;48.480;9.258;2023-01-28T08:35:42;-0.20;99.00
41756;DHT22;27435;48.480;9.258;2023-01-28T08:38:09;-0.10;99.00
41756;DHT22;27435;48.480;9.258;2023-01-28T08:40:35;-0.10;99.00
41756;DHT22;27435;48.480;9.258;2023-01-28T08:43:01;0.10;99.00
41756;DHT22;27435;48.480;9.258;2023-01-28T08:45:27;0.10;99.00
41756;DHT22;27435;48.480;9.258;2023-01-28T08:48:02;0.20;99.00
41756;DHT22;27435;48.480;9.258;2023-01-28T08:50:34;0.10;99.00
41756;DHT22;27435;48.480;9.258;2023-01-28T08:53:02;0.10;99.00
41756;DHT22;27435;48.480;9.258;2023-01-28T08:55:28;0.20;99.00
41756;DHT22;27435;48.480;9.258;2023-01-28T08:57:54;0.20;99.00
41756;DHT22;27435;48.480;9.258;2023-01-28T09:00:20;0.40;99.00
41756;DHT22;27435;48.480;9.258;2023-01-28T09:02:46;0.50;99.00
41756;DHT22;27435;48.480;9.258;2023-01-28T09:05:14;0.50;99.00
41756;DHT22;27435;48.480;9.258;2023-01-28T09:07:40;0.80;99.00
41756;DHT22;27435;48.480;9.258;2023-01-28T09:10:07;0.80;99.00
41756;DHT22;27435;48.480;9.258;2023-01-28T09:12:33;0.80;99.00
41756;DHT22;27435;48.480;9.258;2023-01-28T09:14:58;0.80;99.00
41756;DHT22;27435;48.480;9.258;2023-01-28T09:17:24;0.60;99.00
41756;DHT22;27435;48.480;9.258;2023-01-28T09:19:50;0.40;99.00
41756;DHT22;27435;48.480;9.258;2023-01-28T09:22:16;0.40;99.00
41756;DHT22;27435;48.480;9.258;2023-01-28T09:24:41;0.40;99.00
41756;DHT22;27435;48.480;9.258;2023-01-28T09:27:07;0.40;99.00
41756;DHT22;27435;48.480;9.258;2023-01-28T09:29:33;0.50;99.00
41756;DHT22;27435;48.480;9.258;2023-01-28T09:31:59;0.50;99.00
41756;DHT22;27435;48.480;9.258;2023-01-28T09:34:25;0.60;99.00
41756;DHT22;27435;48.480;9.258;2023-01-28T09:36:50;0.70;99.00
41756;DHT22;27435;48.480;9.258;2023-01-28T09:39:16;0.70;99.00
41756;DHT22;27435;48.480;9.258;2023-01-28T09:47:14;0.90;99.00
41756;DHT22;27435;48.480;9.258;2023-01-28T09:49:47;0.70;99.00
41756;DHT22;27435;48.480;9.258;2023-01-28T09:52:16;0.50;99.00
41756;DHT22;27435;48.480;9.258;2023-01-28T09:54:46;0.60;99.00
41756;DHT22;27435;48.480;9.258;2023-01-28T09:57:25;0.40;99.00
41756;DHT22;27435;48.480;9.258;2023-01-28T09:59:54;0.60;99.00
41756;DHT22;27435;48.480;9.258;2023-01-28T10:03:05;0.80;99.00
41756;DHT22;27435;48.480;9.258;2023-01-28T10:05:48;1.00;99.00
41756;DHT22;27435;48.480;9.258;2023-01-28T10:08:40;1.00;99.00
41756;DHT22;27435;48.480;9.258;2023-01-28T10:13:50;1.00;99.00
41756;DHT22;27435;48.480;9.258;2023-01-28T10:16:33;1.10;99.00
41756;DHT22;27435;48.480;9.258;2023-01-28T10:19:14;1.10;99.00
41756;DHT22;27435;48.480;9.258;2023-01-28T10:21:54;1.00;99.00
41756;DHT22;27435;48.480;9.258;2023-01-28T10:25:07;0.80;99.00
41756;DHT22;27435;48.480;9.258;2023-01-28T10:27:20;0.70;99.00
41756;DHT22;27435;48.480;9.258;2023-01-28T10:29:47;0.70;99.00
41756;DHT22;27435;48.480;9.258;2023-01-28T10:32:33;0.70;99.00
41756;DHT22;27435;48.480;9.258;2023-01-28T10:34:59;0.60;99.00
41756;DHT22;27435;48.480;9.258;2023-01-28T10:37:30;0.60;99.00
41756;DHT22;27435;48.480;9.258;2023-01-28T10:39:58;0.80;99.00
41756;DHT22;27435;48.480;9.258;2023-01-28T10:42:30;0.80;99.00
41756;DHT22;27435;48.480;9.258;2023-01-28T10:45:07;1.00;99.00
41756;DHT22;27435;48.480;9.258;2023-01-28T10:47:45;1.00;99.00
41756;DHT22;27435;48.480;9.258;2023-01-28T10:50:19;0.80;99.00
41756;DHT22;27435;48.480;9.258;2023-01-28T10:55:20;0.80;99.00
41756;DHT22;27435;48.480;9.258;2023-01-28T10:57:47;1.00;99.00
41756;DHT22;27435;48.480;9.258;2023-01-28T11:00:29;1.10;99.00
41756;DHT22;27435;48.480;9.258;2023-01-28T11:02:56;1.40;99.00
41756;DHT22;27435;48.480;9.258;2023-01-28T11:05:25;1.40;99.00
41756;DHT22;27435;48.480;9.258;2023-01-28T11:08:12;1.60;99.00
41756;DHT22;27435;48.480;9.258;2023-01-28T11:10:40;1.50;99.00
41756;DHT22;27435;48.480;9.258;2023-01-28T11:13:25;1.60;99.00
41756;DHT22;27435;48.480;9.258;2023-01-28T11:15:57;1.60;99.00
41756;DHT22;27435;48.480;9.258;2023-01-28T11:18:26;1.70;99.00
41756;DHT22;27435;48.480;9.258;2023-01-28T11:21:05;1.90;99.00
41756;DHT22;27435;48.480;9.258;2023-01-28T11:23:33;2.00;99.00
41756;DHT22;27435;48.480;9.258;2023-01-28T11:28:29;1.80;99.00
41756;DHT22;27435;48.480;9.258;2023-01-28T11:30:58;2.00;99.00
41756;DHT22;27435;48.480;9.258;2023-01-28T11:33:35;2.10;99.00
41756;DHT22;27435;48.480;9.258;2023-01-28T11:36:11;1.90;99.00
41756;DHT22;27435;48.480;9.258;2023-01-28T11:38:56;1.90;99.00
41756;DHT22;27435;48.480;9.258;2023-01-28T11:41:33;1.60;99.00
41756;DHT22;27435;48.480;9.258;2023-01-28T11:44:18;1.60;99.00
41756;DHT22;27435;48.480;9.258;2023-01-28T12:03:08;1.60;99.00
41756;DHT22;27435;48.480;9.258;2023-01-28T12:08:43;1.50;99.00
41756;DHT22;27435;48.480;9.258;2023-01-28T12:41:22;1.30;99.00
41756;DHT22;27435;48.480;9.258;2023-01-28T12:44:01;1.20;99.00
41756;DHT22;27435;48.480;9.258;2023-01-28T12:46:36;1.30;99.00
41756;DHT22;27435;48.480;9.258;2023-01-28T12:49:23;1.40;99.00
41756;DHT22;27435;48.480;9.258;2023-01-28T12:52:08;1.30;99.00
41756;DHT22;27435;48.480;9.258;2023-01-28T12:54:41;1.30;99.00
41756;DHT22;27435;48.480;9.258;2023-01-28T12:57:17;1.30;99.00
41756;DHT22;27435;48.480;9.258;2023-01-28T12:59:50;1.40;99.00
41756;DHT22;27435;48.480;9.258;2023-01-28T13:02:37;1.50;99.00
41756;DHT22;27435;48.480;9.258;2023-01-28T13:05:09;1.50;99.00
41756;DHT22;27435;48.480;9.258;2023-01-28T13:07:55;1.70;99.00
41756;DHT22;27435;48.480;9.258;2023-01-28T13:10:29;1.60;99.00
41756;DHT22;27435;48.480;9.258;2023-01-28T13:12:58;1.80;99.00
41756;DHT22;27435;48.480;9.258;2023-01-28T13:15:24;1.80;99.00
41756;DHT22;27435;48.480;9.258;2023-01-28T13:20:38;2.10;99.00
41756;DHT22;27435;48.480;9.258;2023-01-28T13:23:37;2.20;99.00
41756;DHT22;27435;48.480;9.258;2023-01-28T13:31:13;1.70;99.00
41756;DHT22;27435;48.480;9.258;2023-01-28T13:33:46;1.70;99.00
41756;DHT22;27435;48.480;9.258;2023-01-28T13:36:28;1.60;99.00
41756;DHT22;27435;48.480;9.258;2023-01-28T13:41:53;1.60;99.00
41756;DHT22;27435;48.480;9.258;2023-01-28T13:44:29;1.90;99.00
41756;DHT22;27435;48.480;9.258;2023-01-28T13:49:37;1.70;99.00
41756;DHT22;27435;48.480;9.258;2023-01-28T13:52:16;1.60;99.00
41756;DHT22;27435;48.480;9.258;2023-01-28T13:55:04;1.50;99.00
41756;DHT22;27435;48.480;9.258;2023-01-28T14:06:30;1.50;99.00
41756;DHT22;27435;48.480;9.258;2023-01-28T14:14:37;1.60;99.00
41756;DHT22;27435;48.480;9.258;2023-01-28T14:20:02;1.40;99.00
41756;DHT22;27435;48.480;9.258;2023-01-28T14:22:29;1.50;99.00
41756;DHT22;27435;48.480;9.258;2023-01-28T14:24:59;1.50;99.00
41756;DHT22;27435;48.480;9.258;2023-01-28T14:27:37;1.40;99.00
41756;DHT22;27435;48.480;9.258;2023-01-28T14:30:22;1.40;99.00
41756;DHT22;27435;48.480;9.258;2023-01-28T14:32:53;1.40;99.00
41756;DHT22;27435;48.480;9.258;2023-01-28T14:35:30;1.40;99.00
41756;DHT22;27435;48.480;9.258;2023-01-28T14:37:58;1.40;99.00
41756;DHT22;27435;48.480;9.258;2023-01-28T14:40:24;1.50;99.00
41756;DHT22;27435;48.480;9.258;2023-01-28T14:42:54;1.30;99.00
41756;DHT22;27435;48.480;9.258;2023-01-28T14:46:00;1.20;99.00
41756;DHT22;27435;48.480;9.258;2023-01-28T15:02:01;1.30;99.00
41756;DHT22;27435;48.480;9.258;2023-01-28T15:04:33;1.30;99.00
41756;DHT22;27435;48.480;9.258;2023-01-28T15:07:21;1.20;99.00
41756;DHT22;27435;48.480;9.258;2023-01-28T15:09:59;1.20;99.00
41756;DHT22;27435;48.480;9.258;2023-01-28T15:12:25;1.20;99.00
41756;DHT22;27435;48.480;9.258;2023-01-28T15:14:51;1.20;99.00
41756;DHT22;27435;48.480;9.258;2023-01-28T15:17:26;1.10;99.00
41756;DHT22;27435;48.480;9.258;2023-01-28T15:19:56;1.20;99.00
41756;DHT22;27435;48.480;9.258;2023-01-28T15:22:27;1.20;99.00
41756;DHT22;27435;48.480;9.258;2023-01-28T15:24:53;1.30;99.00
41756;DHT22;27435;48.480;9.258;2023-01-28T15:27:27;1.20;99.00
41756;DHT22;27435;48.480;9.258;2023-01-28T15:29:56;1.30;99.00
41756;DHT22;27435;48.480;9.258;2023-01-28T15:32:28;1.30;99.00
41756;DHT22;27435;48.480;9.258;2023-01-28T15:34:54;1.30;99.00
41756;DHT22;27435;48.480;9.258;2023-01-28T15:37:20;1.30;99.00
41756;DHT22;27435;48.480;9.258;2023-01-28T15:39:46;1.30;99.00
41756;DHT22;27435;48.480;9.258;2023-01-28T15:42:24;1.30;99.00
41756;DHT22;27435;48.480;9.258;2023-01-28T15:44:54;1.00;99.00
41756;DHT22;27435;48.480;9.258;2023-01-28T15:47:29;1.00;99.00
41756;DHT22;27435;48.480;9.258;2023-01-28T15:50:00;1.10;99.00
41756;DHT22;27435;48.480;9.258;2023-01-28T15:52:35;1.10;99.00
41756;DHT22;27435;48.480;9.258;2023-01-28T15:55:03;0.90;99.00
41756;DHT22;27435;48.480;9.258;2023-01-28T15:57:31;0.80;99.00
41756;DHT22;27435;48.480;9.258;2023-01-28T16:00:13;0.70;99.00
41756;DHT22;27435;48.480;9.258;2023-01-28T16:02:44;0.80;99.00
41756;DHT22;27435;48.480;9.258;2023-01-28T16:05:32;0.90;99.00
41756;DHT22;27435;48.480;9.258;2023-01-28T16:08:02;0.90;99.00
41756;DHT22;27435;48.480;9.258;2023-01-28T16:10:31;0.90;99.00
41756;DHT22;27435;48.480;9.258;2023-01-28T16:13:04;0.90;99.00
41756;DHT22;27435;48.480;9.258;2023-01-28T16:15:32;0.90;99.00
41756;DHT22;27435;48.480;9.258;2023-01-28T16:17:58;0.90;99.00
41756;DHT22;27435;48.480;9.258;2023-01-28T16:20:26;0.80;99.00
41756;DHT22;27435;48.480;9.258;2023-01-28T16:22:58;0.70;99.00
41756;DHT22;27435;48.480;9.258;2023-01-28T16:25:27;0.60;99.00
41756;DHT22;27435;48.480;9.258;2023-01-28T16:27:54;0.60;99.00
41756;DHT22;27435;48.480;9.258;2023-01-28T16:30:19;0.60;99.00
41756;DHT22;27435;48.480;9.258;2023-01-28T16:32:45;0.50;99.00
41756;DHT22;27435;48.480;9.258;2023-01-28T16:35:26;0.40;99.00
41756;DHT22;27435;48.480;9.258;2023-01-28T16:37:53;0.60;99.00
41756;DHT22;27435;48.480;9.258;2023-01-28T16:40:23;0.60;99.00
41756;DHT22;27435;48.480;9.258;2023-01-28T16:42:53;0.70;99.00
41756;DHT22;27435;48.480;9.258;2023-01-28T16:45:23;0.70;99.00
41756;DHT22;27435;48.480;9.258;2023-01-28T16:47:50;0.70;99.00
41756;DHT22;27435;48.480;9.258;2023-01-28T16:50:16;0.70;99.00
41756;DHT22;27435;48.480;9.258;2023-01-28T16:52:43;0.70;99.00
41756;DHT22;27435;48.480;9.258;2023-01-28T16:55:15;0.80;99.00
41756;DHT22;27435;48.480;9.258;2023-01-28T16:57:42;0.80;99.00
41756;DHT22;27435;48.480;9.258;2023-01-28T17:00:19;0.90;99.00
41756;DHT22;27435;48.480;9.258;2023-01-28T17:02:45;0.80;99.00
41756;DHT22;27435;48.480;9.258;2023-01-28T17:05:11;0.80;99.00
41756;DHT22;27435;48.480;9.258;2023-01-28T17:07:39;0.90;99.00
41756;DHT22;27435;48.480;9.258;2023-01-28T17:10:05;0.80;99.00
41756;DHT22;27435;48.480;9.258;2023-01-28T17:12:31;0.90;99.00
41756;DHT22;27435;48.480;9.258;2023-01-28T17:14:56;0.90;99.00
41756;DHT22;27435;48.480;9.258;2023-01-28T17:17:22;0.80;99.00
41756;DHT22;27435;48.480;9.258;2023-01-28T17:19:47;0.80;99.00
41756;DHT22;27435;48.480;9.258;2023-01-28T17:22:13;0.80;99.00
41756;DHT22;27435;48.480;9.258;2023-01-28T17:24:39;0.80;99.00
41756;DHT22;27435;48.480;9.258;2023-01-28T17:27:04;0.70;99.00
41756;DHT22;27435;48.480;9.258;2023-01-28T17:29:30;0.80;99.00
41756;DHT22;27435;48.480;9.258;2023-01-28T17:31:56;0.70;99.00
41756;DHT22;27435;48.480;9.258;2023-01-28T17:34:22;0.70;99.00
41756;DHT22;27435;48.480;9.258;2023-01-28T17:36:48;0.70;99.00
41756;DHT22;27435;48.480;9.258;2023-01-28T17:39:13;0.60;99.00
41756;DHT22;27435;48.480;9.258;2023-01-28T17:41:39;0.50;99.00
41756;DHT22;27435;48.480;9.258;2023-01-28T17:44:04;0.50;99.00
41756;DHT22;27435;48.480;9.258;2023-01-28T17:46:30;0.50;99.00
41756;DHT22;27435;48.480;9.258;2023-01-28T17:48:56;0.50;99.00
41756;DHT22;27435;48.480;9.258;2023-01-28T17:51:22;0.60;99.00
41756;DHT22;27435;48.480;9.258;2023-01-28T17:53:51;0.60;99.00
41756;DHT22;27435;48.480;9.258;2023-01-28T17:56:22;0.70;99.00
41756;DHT22;27435;48.480;9.258;2023-01-28T17:59:08;0.60;99.00
41756;DHT22;27435;48.480;9.258;2023-01-28T18:01:34;0.50;99.00
41756;DHT22;27435;48.480;9.258;2023-01-28T18:04:02;0.60;99.00
41756;DHT22;27435;48.480;9.258;2023-01-28T18:06:32;0.70;99.00
41756;DHT22;27435;48.480;9.258;2023-01-28T18:08:59;0.70;99.00
41756;DHT22;27435;48.480;9.258;2023-01-28T18:11:25;0.70;99.00